»·PEaware :: FDX813 KSBA-KSFO

FDX813 :: KSBA-KSFO

FLIGHT INFORMATION

Flight Status: Arrived
Operator:
Federal Express
More flights by this operator :: More flights under this callsign
Pilot: Brenden M. (4822)
Aircraft: BOEING 757-200
(B752)
More flights by this aircraft type
Origin: KSBA Santa Barbara Mun
United States
Destination: KSFO San Francisco Intl
United States
More flights between these airports :: More routes between these airports
Route: GAUCH1 MQO SERFR SERFR3
File this flight plan on PilotEdge
Remarks:
Altitude:
(Current/Filed)
30,000ft
Speed:
(Current/Filed)
450kts
Departed: 04-Oct-18 04:26 PM
Arrived: 04-Oct-18 05:21 PM
Distance/Time
Traveled:
229nm/0:55
Distance/Time
To Go:
Arrived

Flight Plot

Page will automatically refresh every two minutes.

Flight plan parsing failed; only flown route is shown


Map Options




Map Legend


Flown Route
Filed Route
Departure Airport
Arrival Airport
Navaid (VOR, NDB)
Fix

Horizontal Profiles

Position Reports

Time Latitude Longitude Heading Altitude Ground
Speed
04-Oct-18 16:00 34.425951 -119.836691 189 24ft 0kts
04-Oct-18 16:01 34.425951 -119.836691 189 24ft 0kts
04-Oct-18 16:02 34.425951 -119.836691 189 24ft 0kts
04-Oct-18 16:03 34.425951 -119.836691 189 24ft 0kts
04-Oct-18 16:04 34.425951 -119.836691 189 24ft 0kts
04-Oct-18 16:05 34.425951 -119.836691 189 24ft 0kts
04-Oct-18 16:06 34.425951 -119.836691 189 24ft 0kts
04-Oct-18 16:07 34.425951 -119.836691 189 24ft 0kts
04-Oct-18 16:08 34.425951 -119.836691 189 24ft 0kts
04-Oct-18 16:09 34.425951 -119.836691 189 24ft 0kts
04-Oct-18 16:10 34.425951 -119.836691 189 24ft 0kts
04-Oct-18 16:11 34.425951 -119.836691 189 24ft 0kts
04-Oct-18 16:12 34.425951 -119.836691 189 24ft 0kts
04-Oct-18 16:13 34.425951 -119.836691 189 24ft 0kts
04-Oct-18 16:14 34.425951 -119.836691 189 24ft 0kts
04-Oct-18 16:15 34.425951 -119.836691 189 24ft 0kts
04-Oct-18 16:16 34.425951 -119.836691 189 24ft 0kts
04-Oct-18 16:17 34.425951 -119.836691 189 24ft 0kts
04-Oct-18 16:18 34.425951 -119.836691 189 24ft 0kts
04-Oct-18 16:19 34.425951 -119.836691 189 24ft 0kts
04-Oct-18 16:20 34.425951 -119.836691 189 24ft 0kts
04-Oct-18 16:21 34.425951 -119.836691 189 24ft 0kts
04-Oct-18 16:22 34.425951 -119.836691 189 24ft 0kts
04-Oct-18 16:23 34.425951 -119.836691 189 24ft 0kts
04-Oct-18 16:24 34.425872 -119.836871 309 24ft 3kts
04-Oct-18 16:25 34.426334 -119.836698 32 25ft 6kts
04-Oct-18 16:26 34.426960 -119.834930 54 25ft 0kts
04-Oct-18 16:27 34.427885 -119.835866 270 24ft 14kts
04-Oct-18 16:28 34.426718 -119.878330 268 1645ft 184kts
04-Oct-18 16:29 34.421791 -119.952289 264 3443ft 293kts
04-Oct-18 16:30 34.417213 -120.041973 268 7972ft 271kts
04-Oct-18 16:31 34.415220 -120.134831 271 10716ft 307kts
04-Oct-18 16:32 34.469230 -120.225095 337 13422ft 381kts
04-Oct-18 16:33 34.570561 -120.265663 332 17374ft 403kts
04-Oct-18 16:34 34.661115 -120.345971 322 20756ft 423kts
04-Oct-18 16:35 34.758580 -120.428557 331 23715ft 442kts
04-Oct-18 16:36 34.865149 -120.500422 331 26955ft 441kts
04-Oct-18 16:37 34.964058 -120.567036 331 29700ft 436kts
04-Oct-18 16:38 35.069131 -120.637875 331 29963ft 433kts
04-Oct-18 16:39 35.164960 -120.701803 330 29963ft 433kts
04-Oct-18 16:40 35.265381 -120.770550 328 29964ft 433kts
04-Oct-18 16:41 35.367485 -120.845612 328 29963ft 433kts
04-Oct-18 16:42 35.467526 -120.919290 328 29963ft 433kts
04-Oct-18 16:43 35.563970 -120.990503 328 29963ft 433kts
04-Oct-18 16:44 35.666176 -121.066189 328 29963ft 433kts
04-Oct-18 16:45 35.767581 -121.141509 328 29963ft 433kts
04-Oct-18 16:46 35.869090 -121.217134 328 29963ft 433kts
04-Oct-18 16:47 35.971790 -121.293882 328 29963ft 434kts
04-Oct-18 16:48 36.073728 -121.370481 328 29188ft 437kts
04-Oct-18 16:49 36.173117 -121.447446 328 27282ft 439kts
04-Oct-18 16:50 36.273969 -121.525922 328 25206ft 431kts
04-Oct-18 16:51 36.372260 -121.603495 327 22784ft 415kts
04-Oct-18 16:52 36.468153 -121.679410 327 20762ft 406kts
04-Oct-18 16:53 36.560713 -121.745666 342 20061ft 402kts
04-Oct-18 16:54 36.646316 -121.780634 340 18177ft 389kts
04-Oct-18 16:55 36.745956 -121.825850 339 16088ft 376kts
04-Oct-18 16:56 36.857697 -121.877635 339 13866ft 364kts
04-Oct-18 16:57 36.938355 -121.933848 315 12255ft 358kts
04-Oct-18 16:58 37.001281 -121.998723 323 10845ft 350kts
04-Oct-18 16:59 37.087028 -122.025229 350 9273ft 343kts
04-Oct-18 17:00 37.168510 -122.046457 346 8832ft 293kts
04-Oct-18 17:01 37.239475 -122.068253 345 8230ft 285kts
04-Oct-18 17:02 37.312017 -122.094095 342 6882ft 281kts
04-Oct-18 17:03 37.382743 -122.121587 344 5700ft 273kts
04-Oct-18 17:04 37.454318 -122.146014 345 4377ft 269kts
04-Oct-18 17:05 37.514743 -122.165943 345 4094ft 178kts
04-Oct-18 17:06 37.549459 -122.203640 296 2742ft 178kts
04-Oct-18 17:07 37.570737 -122.255275 297 1852ft 174kts
04-Oct-18 17:08 37.593194 -122.308784 298 910ft 172kts
04-Oct-18 17:09 37.615130 -122.362636 294 1107ft 207kts
04-Oct-18 17:10 37.639492 -122.438898 287 3116ft 234kts
04-Oct-18 17:11 37.623949 -122.496436 166 3923ft 225kts
04-Oct-18 17:12 37.579082 -122.444377 134 3864ft 216kts
04-Oct-18 17:13 37.540764 -122.393169 132 3877ft 201kts
04-Oct-18 17:14 37.507650 -122.335586 113 3881ft 211kts
04-Oct-18 17:15 37.484846 -122.267836 113 3492ft 211kts
04-Oct-18 17:16 37.470952 -122.202251 62 2872ft 187kts
04-Oct-18 17:17 37.511185 -122.175614 14 2792ft 161kts
04-Oct-18 17:18 37.548995 -122.202953 303 2421ft 167kts
04-Oct-18 17:19 37.570417 -122.253896 298 1892ft 164kts
04-Oct-18 17:20 37.591170 -122.303972 297 1007ft 146kts
04-Oct-18 17:21 37.607979 -122.343945 298 302ft 125kts
04-Oct-18 17:22 37.621229 -122.375618 298 25ft 60kts
04-Oct-18 17:23 37.624853 -122.381238 10 25ft 0kts
04-Oct-18 17:24 37.625768 -122.382615 298 25ft 15kts
04-Oct-18 17:25 37.627620 -122.387079 297 25ft 14kts
04-Oct-18 17:26 37.629251 -122.390900 297 24ft 13kts
04-Oct-18 17:27 37.631679 -122.393802 330 25ft 12kts
04-Oct-18 17:28 37.634660 -122.395254 336 25ft 10kts
04-Oct-18 17:29 37.634769 -122.395974 247 25ft 0kts

Navigation Log

Ident Type
Flight plan parsing failed, navigation log unavailable